Aviation Digital Data Service (ADDS)

Output produced by METARs form (1813 UTC 30 August 2014)
found at http://aviationweather.gov/adds/metars/
 
KLFT 301739Z 3018/3118 22010KT 5SM SHRA SCT011 BKN019 OVC050 
     TEMPO 3018/3022 VRB13G22KT 2SM TSRA FEW008 BKN035CB OVC050 
     FM302200 19009KT P6SM SHRA FEW015 BKN025 OVC050 
     TEMPO 3022/3102 VRB13G20KT 4SM -TSRA OVC015CB 
     FM310200 18007KT P6SM -SHRA SCT018 OVC030 
     FM310500 18005KT P6SM VCSH FEW012 OVC025 
     FM310900 16002KT P6SM OVC015